Time;durP1;ratioP1;P1;durP2;ratioP2;P2;SDS_P1;SDS_P2;PMS_P1;PMS_P2;Temp;Humidity;BMP_temperature;BMP_pressure;BME280_temperature;BME280_humidity;BME280_pressure;Samples;Min_cycle;Max_cycle;Signal;HPM_P1;HPM_P2
2021/10/03 00:00:53;;;;;;;14.32;13.02;;;;;;;;;;5124807;27;24397;-59
2021/10/03 00:03:23;;;;;;;14.55;13.25;;;;;;;;;;5119946;27;24458;-60
2021/10/03 00:05:51;;;;;;;14.50;13.00;;;;;;;;;;5119333;27;24750;-58
2021/10/03 00:08:16;;;;;;;14.75;13.35;;;;;;;;;;5120433;27;24417;-59
2021/10/03 00:10:41;;;;;;;13.50;12.20;;;;;;;;;;5125641;27;24454;-59
2021/10/03 00:13:07;;;;;;;13.57;12.27;;;;;;;;;;5125974;27;24475;-59
2021/10/03 00:15:33;;;;;;;13.47;12.27;;;;;;;;;;5123377;27;24425;-59
2021/10/03 00:17:58;;;;;;;13.20;12.00;;;;;;;;;;5119643;27;25331;-59
2021/10/03 00:20:24;;;;;;;12.97;11.67;;;;;;;;;;5118936;27;24894;-60
2021/10/03 00:22:49;;;;;;;13.30;12.20;;;;;;;;;;5113511;27;24464;-59
2021/10/03 00:25:14;;;;;;;14.40;13.10;;;;;;;;;;5123141;27;24416;-59
2021/10/03 00:27:43;;;;;;;13.95;12.75;;;;;;;;;;5123057;27;24448;-59
2021/10/03 00:30:09;;;;;;;14.00;12.80;;;;;;;;;;5123080;27;24525;-59
2021/10/03 00:32:34;;;;;;;13.77;12.47;;;;;;;;;;5122431;27;24409;-59
2021/10/03 00:34:59;;;;;;;13.20;11.90;;;;;;;;;;5119273;27;24464;-59
2021/10/03 00:37:25;;;;;;;13.53;12.23;;;;;;;;;;5124076;27;24421;-59
2021/10/03 00:39:50;;;;;;;13.63;12.38;;;;;;;;;;5122505;27;24417;-59
2021/10/03 00:42:15;;;;;;;12.82;11.73;;;;;;;;;;5122978;27;24442;-59
2021/10/03 00:44:40;;;;;;;13.20;12.10;;;;;;;;;;5121948;27;24417;-59
2021/10/03 00:47:06;;;;;;;13.30;12.20;;;;;;;;;;5123212;27;24490;-60
2021/10/03 00:49:34;;;;;;;13.37;12.27;;;;;;;;;;5123848;27;24784;-59
2021/10/03 00:52:04;;;;;;;12.70;11.70;;;;;;;;;;5113709;27;24879;-59
2021/10/03 00:54:29;;;;;;;13.90;12.70;;;;;;;;;;5115786;27;24845;-60
2021/10/03 00:56:54;;;;;;;13.83;12.53;;;;;;;;;;5119957;27;25092;-59
2021/10/03 00:59:19;;;;;;;15.37;13.87;;;;;;;;;;5116511;27;24613;-59
2021/10/03 01:01:45;;;;;;;14.00;12.90;;;;;;;;;;5124255;27;24428;-59
2021/10/03 01:04:11;;;;;;;13.47;12.23;;;;;;;;;;5124978;27;24600;-59
2021/10/03 01:06:36;;;;;;;13.20;12.00;;;;;;;;;;5125235;27;24976;-59
2021/10/03 01:09:02;;;;;;;14.47;13.07;;;;;;;;;;5122871;27;24992;-59
2021/10/03 01:11:27;;;;;;;13.60;12.40;;;;;;;;;;5118299;27;24507;-60
2021/10/03 01:13:52;;;;;;;13.60;12.40;;;;;;;;;;5121726;27;24424;-59
2021/10/03 01:16:17;;;;;;;14.10;12.80;;;;;;;;;;5124780;27;24513;-60
2021/10/03 01:18:43;;;;;;;14.30;13.00;;;;;;;;;;5122381;27;24461;-59
2021/10/03 01:21:08;;;;;;;14.10;12.90;;;;;;;;;;5119096;27;24421;-59
2021/10/03 01:23:34;;;;;;;14.55;13.25;;;;;;;;;;5121959;27;24527;-60
2021/10/03 01:25:59;;;;;;;14.75;13.35;;;;;;;;;;5121832;27;24423;-60
2021/10/03 01:28:24;;;;;;;15.23;13.93;;;;;;;;;;5121413;27;24409;-59
2021/10/03 01:30:50;;;;;;;14.73;13.43;;;;;;;;;;5114776;27;24424;-59
2021/10/03 01:33:16;;;;;;;14.40;13.10;;;;;;;;;;5123792;27;24464;-60
2021/10/03 01:35:42;;;;;;;14.93;13.73;;;;;;;;;;5120044;27;24937;-59
2021/10/03 01:38:07;;;;;;;14.10;12.90;;;;;;;;;;5121648;27;25053;-60
2021/10/03 01:40:33;;;;;;;15.23;13.73;;;;;;;;;;5123236;27;24503;-59
2021/10/03 01:42:58;;;;;;;14.50;13.10;;;;;;;;;;5121338;27;24805;-59
2021/10/03 01:45:23;;;;;;;15.50;14.00;;;;;;;;;;5125390;27;24481;-59
2021/10/03 01:48:02;;;;;;;15.50;14.00;;;;;;;;;;5113896;27;24989;-58
2021/10/03 01:50:27;;;;;;;16.33;14.68;;;;;;;;;;5121353;27;24828;-59
2021/10/03 01:52:53;;;;;;;16.63;15.03;;;;;;;;;;5121202;27;24964;-59
2021/10/03 01:55:18;;;;;;;14.90;13.60;;;;;;;;;;5123121;27;24409;-58
2021/10/03 01:57:43;;;;;;;16.67;15.17;;;;;;;;;;5123226;27;24425;-58
2021/10/03 02:00:09;;;;;;;15.82;14.40;;;;;;;;;;5124941;27;24419;-58
2021/10/03 02:02:34;;;;;;;15.70;14.30;;;;;;;;;;5121136;27;24409;-58
2021/10/03 02:04:59;;;;;;;15.90;14.50;;;;;;;;;;5117767;27;24500;-59
2021/10/03 02:07:24;;;;;;;16.60;15.20;;;;;;;;;;5119423;27;24971;-58
2021/10/03 02:09:49;;;;;;;16.33;14.90;;;;;;;;;;5119649;27;24425;-59
2021/10/03 02:12:14;;;;;;;16.67;14.50;;;;;;;;;;5125326;27;24409;-60
2021/10/03 02:14:40;;;;;;;15.95;14.45;;;;;;;;;;5121100;27;24458;-59
2021/10/03 02:17:06;;;;;;;15.73;14.32;;;;;;;;;;5121460;27;24513;-59
2021/10/03 02:19:31;;;;;;;16.08;14.57;;;;;;;;;;5120670;27;24405;-58
2021/10/03 02:21:57;;;;;;;16.33;14.83;;;;;;;;;;5120707;27;24423;-59
2021/10/03 02:24:22;;;;;;;17.27;15.43;;;;;;;;;;5120658;27;24413;-59
2021/10/03 02:26:47;;;;;;;16.27;14.87;;;;;;;;;;5117192;27;24527;-59
2021/10/03 02:29:13;;;;;;;15.87;14.37;;;;;;;;;;5124263;27;24412;-59
2021/10/03 02:31:38;;;;;;;16.00;14.60;;;;;;;;;;5120111;27;24526;-59
2021/10/03 02:34:03;;;;;;;15.85;14.35;;;;;;;;;;5118413;27;25040;-59
2021/10/03 02:36:29;;;;;;;16.00;14.40;;;;;;;;;;5121043;27;24420;-58
2021/10/03 02:38:54;;;;;;;15.73;14.23;;;;;;;;;;5123786;27;24489;-59
2021/10/03 02:41:20;;;;;;;15.50;14.10;;;;;;;;;;5124217;27;24421;-58
2021/10/03 02:43:47;;;;;;;16.67;15.27;;;;;;;;;;5114850;27;24463;-59
2021/10/03 02:46:13;;;;;;;17.33;15.82;;;;;;;;;;5118711;27;24412;-59
2021/10/03 02:48:39;;;;;;;16.42;14.90;;;;;;;;;;5117739;27;24412;-59
2021/10/03 02:51:04;;;;;;;16.20;14.80;;;;;;;;;;5122077;27;24413;-59
2021/10/03 02:53:30;;;;;;;15.60;14.00;;;;;;;;;;5118978;27;25028;-58
2021/10/03 02:55:55;;;;;;;16.90;15.40;;;;;;;;;;5121883;27;24442;-59
2021/10/03 02:58:21;;;;;;;15.90;14.60;;;;;;;;;;5114763;27;24506;-59
2021/10/03 03:00:48;;;;;;;16.20;14.80;;;;;;;;;;5118225;27;24469;-59
2021/10/03 03:03:13;;;;;;;16.10;14.60;;;;;;;;;;5119986;27;24405;-58
2021/10/03 03:05:39;;;;;;;16.03;14.67;;;;;;;;;;5122128;27;24999;-59
2021/10/03 03:08:04;;;;;;;16.63;15.03;;;;;;;;;;5123759;27;24408;-59
2021/10/03 03:10:30;;;;;;;16.50;15.10;;;;;;;;;;5124064;27;25446;-59
2021/10/03 03:12:55;;;;;;;16.52;15.02;;;;;;;;;;5116994;27;24516;-59
2021/10/03 03:15:20;;;;;;;15.40;14.10;;;;;;;;;;5118656;27;24975;-59
2021/10/03 03:17:45;;;;;;;16.17;14.68;;;;;;;;;;5121969;27;24424;-60
2021/10/03 03:20:10;;;;;;;15.60;14.30;;;;;;;;;;5123645;27;24417;-59
2021/10/03 03:22:36;;;;;;;15.60;14.30;;;;;;;;;;5119615;27;24805;-61
2021/10/03 03:25:03;;;;;;;16.05;14.45;;;;;;;;;;5119984;27;24397;-59
2021/10/03 03:27:28;;;;;;;16.13;14.52;;;;;;;;;;5119976;27;24463;-59
2021/10/03 03:29:53;;;;;;;16.13;14.73;;;;;;;;;;5112631;27;24409;-59
2021/10/03 03:32:18;;;;;;;17.15;15.45;;;;;;;;;;5123262;27;24412;-59
2021/10/03 03:34:44;;;;;;;16.23;14.63;;;;;;;;;;5121079;27;24486;-60
2021/10/03 03:37:09;;;;;;;16.30;14.80;;;;;;;;;;5123288;27;24482;-59
2021/10/03 03:39:34;;;;;;;16.70;15.30;;;;;;;;;;5117996;27;24417;-59
2021/10/03 03:41:59;;;;;;;15.40;14.10;;;;;;;;;;5117936;27;24863;-59
2021/10/03 03:44:24;;;;;;;16.17;14.67;;;;;;;;;;5117713;27;24502;-60
2021/10/03 03:46:50;;;;;;;16.07;14.73;;;;;;;;;;5121611;28;24976;-59
2021/10/03 03:49:15;;;;;;;16.33;14.93;;;;;;;;;;5123509;28;25147;-59
2021/10/03 03:51:40;;;;;;;15.87;14.37;;;;;;;;;;5119149;28;24496;-59
2021/10/03 03:54:05;;;;;;;16.60;15.10;;;;;;;;;;5123041;28;24409;-60
2021/10/03 03:56:30;;;;;;;16.00;14.70;;;;;;;;;;5120135;28;24402;-59
2021/10/03 03:58:55;;;;;;;16.87;15.27;;;;;;;;;;5117850;28;24586;-59
2021/10/03 04:01:21;;;;;;;16.33;14.70;;;;;;;;;;5119591;28;24408;-59
2021/10/03 04:03:46;;;;;;;15.57;14.17;;;;;;;;;;5121109;28;24530;-59
2021/10/03 04:06:11;;;;;;;16.30;14.90;;;;;;;;;;5119174;28;25128;-60
2021/10/03 04:08:37;;;;;;;15.73;14.23;;;;;;;;;;5114220;28;24409;-59
2021/10/03 04:11:02;;;;;;;16.27;14.87;;;;;;;;;;5112621;28;24417;-59
2021/10/03 04:13:27;;;;;;;15.70;14.20;;;;;;;;;;5118485;28;24491;-59
2021/10/03 04:15:52;;;;;;;17.10;15.43;;;;;;;;;;5110838;28;24418;-59
2021/10/03 04:18:18;;;;;;;16.02;14.70;;;;;;;;;;5106961;28;24433;-59
2021/10/03 04:20:43;;;;;;;16.52;15.10;;;;;;;;;;5121090;28;24412;-59
2021/10/03 04:23:08;;;;;;;16.80;15.30;;;;;;;;;;5120308;28;24413;-60
2021/10/03 04:25:34;;;;;;;16.20;14.70;;;;;;;;;;5115854;28;24433;-60
2021/10/03 04:27:59;;;;;;;16.80;15.30;;;;;;;;;;5123771;28;24421;-59
2021/10/03 04:30:24;;;;;;;16.00;14.60;;;;;;;;;;5124805;28;24452;-60
2021/10/03 04:32:50;;;;;;;16.33;14.77;;;;;;;;;;5121813;28;24482;-59
2021/10/03 04:35:15;;;;;;;15.80;14.40;;;;;;;;;;5118326;28;24494;-59
2021/10/03 04:37:40;;;;;;;16.00;14.60;;;;;;;;;;5116724;28;24485;-59
2021/10/03 04:40:05;;;;;;;16.03;14.53;;;;;;;;;;5126859;28;24405;-59
2021/10/03 04:42:31;;;;;;;16.07;14.77;;;;;;;;;;5126121;28;24608;-59
2021/10/03 04:44:57;;;;;;;15.50;14.10;;;;;;;;;;5127393;27;24433;-59
2021/10/03 04:47:23;;;;;;;15.33;14.03;;;;;;;;;;5129691;27;24761;-59
2021/10/03 04:49:49;;;;;;;16.70;15.00;;;;;;;;;;5129465;27;24461;-59
2021/10/03 04:52:14;;;;;;;15.63;14.30;;;;;;;;;;5123440;27;24492;-58
2021/10/03 04:54:39;;;;;;;16.40;14.90;;;;;;;;;;5123172;27;24431;-58
2021/10/03 04:57:05;;;;;;;15.57;13.97;;;;;;;;;;5119308;27;24428;-58
2021/10/03 04:59:30;;;;;;;15.40;14.10;;;;;;;;;;5122519;27;24409;-58
2021/10/03 05:01:55;;;;;;;15.20;13.85;;;;;;;;;;5120146;27;24413;-58
2021/10/03 05:04:20;;;;;;;15.47;14.07;;;;;;;;;;5118591;27;24409;-59
2021/10/03 05:06:45;;;;;;;16.25;14.75;;;;;;;;;;5120133;27;24411;-59
2021/10/03 05:09:10;;;;;;;15.75;14.35;;;;;;;;;;5115071;27;24844;-59
2021/10/03 05:11:35;;;;;;;16.17;14.70;;;;;;;;;;5125560;27;24956;-59
2021/10/03 05:14:06;;;;;;;15.70;14.30;;;;;;;;;;5117280;27;24413;-58
2021/10/03 05:16:31;;;;;;;15.38;13.98;;;;;;;;;;5119719;27;24996;-61
2021/10/03 05:18:58;;;;;;;17.23;15.70;;;;;;;;;;5121035;27;24436;-61
2021/10/03 05:21:23;;;;;;;16.60;15.10;;;;;;;;;;5124569;27;24944;-59
2021/10/03 05:23:48;;;;;;;15.73;14.33;;;;;;;;;;5122763;27;24998;-60
2021/10/03 05:26:13;;;;;;;15.60;14.10;;;;;;;;;;5119977;27;24421;-59
2021/10/03 05:28:38;;;;;;;17.08;15.57;;;;;;;;;;5127518;27;24524;-60
2021/10/03 05:31:03;;;;;;;16.40;14.80;;;;;;;;;;5124691;27;24979;-60
2021/10/03 05:33:29;;;;;;;16.20;14.80;;;;;;;;;;5119682;27;24459;-60
2021/10/03 05:35:54;;;;;;;16.98;15.38;;;;;;;;;;5126286;27;24452;-60
2021/10/03 05:38:19;;;;;;;16.13;14.63;;;;;;;;;;5119223;27;24552;-60
2021/10/03 05:40:44;;;;;;;16.00;14.60;;;;;;;;;;5115449;27;24485;-60
2021/10/03 05:43:10;;;;;;;15.82;14.32;;;;;;;;;;5119922;27;24409;-60
2021/10/03 05:45:35;;;;;;;16.80;15.10;;;;;;;;;;5117094;27;24501;-60
2021/10/03 05:48:00;;;;;;;17.20;15.57;;;;;;;;;;5124566;27;25035;-59
2021/10/03 05:50:25;;;;;;;16.60;15.07;;;;;;;;;;5105819;27;24381;-60
2021/10/03 05:52:50;;;;;;;15.98;14.25;;;;;;;;;;5118736;27;25042;-60
2021/10/03 05:55:15;;;;;;;16.00;14.70;;;;;;;;;;5121819;27;24397;-60
2021/10/03 05:57:40;;;;;;;15.52;14.13;;;;;;;;;;5121736;27;24445;-59
2021/10/03 06:00:06;;;;;;;16.35;14.85;;;;;;;;;;5125220;27;24992;-60
2021/10/03 06:02:31;;;;;;;15.75;14.45;;;;;;;;;;5124483;27;24405;-60
2021/10/03 06:04:56;;;;;;;16.27;14.77;;;;;;;;;;5118960;27;25014;-60
2021/10/03 06:07:22;;;;;;;15.73;14.32;;;;;;;;;;5118791;27;24885;-60
2021/10/03 06:09:47;;;;;;;16.03;14.63;;;;;;;;;;5122955;27;24413;-60
2021/10/03 06:12:13;;;;;;;16.30;14.80;;;;;;;;;;5125032;27;24509;-60
2021/10/03 06:14:38;;;;;;;16.17;14.77;;;;;;;;;;5122152;27;24547;-60
2021/10/03 06:17:03;;;;;;;16.02;14.52;;;;;;;;;;5124661;27;24528;-60
2021/10/03 06:19:28;;;;;;;17.75;16.15;;;;;;;;;;5120541;27;24501;-60
2021/10/03 06:21:54;;;;;;;15.93;14.52;;;;;;;;;;5119136;27;24424;-60
2021/10/03 06:24:22;;;;;;;16.25;14.75;;;;;;;;;;5120867;27;24416;-60
2021/10/03 06:26:47;;;;;;;15.20;13.80;;;;;;;;;;5123129;27;24524;-61
2021/10/03 06:29:13;;;;;;;15.93;14.43;;;;;;;;;;5120340;27;24674;-60
2021/10/03 06:31:38;;;;;;;15.00;13.70;;;;;;;;;;5122855;27;24501;-60
2021/10/03 06:34:03;;;;;;;15.85;14.38;;;;;;;;;;5121466;27;24549;-60
2021/10/03 06:36:30;;;;;;;15.63;14.32;;;;;;;;;;5120294;27;24424;-60
2021/10/03 06:38:55;;;;;;;15.38;14.07;;;;;;;;;;5116631;27;24428;-60
2021/10/03 06:41:20;;;;;;;15.63;14.32;;;;;;;;;;5122103;27;24513;-60
2021/10/03 06:43:45;;;;;;;15.24;13.74;;;;;;;;;;5120239;27;24502;-60
2021/10/03 06:46:10;;;;;;;15.35;13.98;;;;;;;;;;5123807;27;25141;-60
2021/10/03 06:48:36;;;;;;;14.63;13.32;;;;;;;;;;5123405;27;24420;-61
2021/10/03 06:51:01;;;;;;;15.65;14.15;;;;;;;;;;5118588;27;24528;-60
2021/10/03 06:53:27;;;;;;;16.23;14.73;;;;;;;;;;5117633;27;25038;-60
2021/10/03 06:55:53;;;;;;;15.83;14.43;;;;;;;;;;5120704;27;24439;-60
2021/10/03 06:58:19;;;;;;;16.00;14.60;;;;;;;;;;5124114;27;24513;-61
2021/10/03 07:00:44;;;;;;;14.50;13.23;;;;;;;;;;5122059;27;24815;-60
2021/10/03 07:03:09;;;;;;;16.30;14.80;;;;;;;;;;5115725;27;24413;-60
2021/10/03 07:05:34;;;;;;;16.33;14.73;;;;;;;;;;5119582;27;24955;-60
2021/10/03 07:08:00;;;;;;;15.63;14.32;;;;;;;;;;5121314;27;25099;-60
2021/10/03 07:10:25;;;;;;;15.52;14.00;;;;;;;;;;5123591;27;24421;-59
2021/10/03 07:12:50;;;;;;;15.70;14.30;;;;;;;;;;5121266;27;24769;-59
2021/10/03 07:15:15;;;;;;;16.40;15.00;;;;;;;;;;5123438;27;25019;-59
2021/10/03 07:17:41;;;;;;;15.00;13.80;;;;;;;;;;5117702;27;24478;-59
2021/10/03 07:20:06;;;;;;;16.00;14.52;;;;;;;;;;5118073;27;24413;-61
2021/10/03 07:22:31;;;;;;;16.50;15.00;;;;;;;;;;5120953;27;24470;-58
2021/10/03 07:24:56;;;;;;;16.20;14.80;;;;;;;;;;5118875;27;24459;-59
2021/10/03 07:27:22;;;;;;;16.20;14.70;;;;;;;;;;5124075;27;24912;-59
2021/10/03 07:29:48;;;;;;;15.93;14.43;;;;;;;;;;5120365;27;24837;-60
2021/10/03 07:32:13;;;;;;;15.37;14.07;;;;;;;;;;5121013;27;24405;-60
2021/10/03 07:34:38;;;;;;;15.60;14.20;;;;;;;;;;5117412;27;24441;-59
2021/10/03 07:37:03;;;;;;;15.37;13.87;;;;;;;;;;5120409;27;24464;-59
2021/10/03 07:39:29;;;;;;;15.47;14.07;;;;;;;;;;5121297;27;24412;-60
2021/10/03 07:41:54;;;;;;;15.90;14.57;;;;;;;;;;5121305;27;24463;-60
2021/10/03 07:44:19;;;;;;;16.53;15.13;;;;;;;;;;5122233;27;24435;-60
2021/10/03 07:46:45;;;;;;;15.65;14.15;;;;;;;;;;5120677;27;24516;-59
2021/10/03 07:49:11;;;;;;;16.30;14.80;;;;;;;;;;5121381;27;24409;-61
2021/10/03 07:51:36;;;;;;;16.00;14.50;;;;;;;;;;5119582;28;24588;-60
2021/10/03 07:54:02;;;;;;;15.82;14.43;;;;;;;;;;5121831;28;24750;-61
2021/10/03 07:56:27;;;;;;;15.57;14.18;;;;;;;;;;5123707;28;24470;-61
2021/10/03 07:58:52;;;;;;;16.88;15.38;;;;;;;;;;5120898;28;24432;-61
2021/10/03 08:01:18;;;;;;;15.70;14.20;;;;;;;;;;5123639;28;24485;-61
2021/10/03 08:03:43;;;;;;;15.90;14.50;;;;;;;;;;5118009;28;24931;-61
2021/10/03 08:06:08;;;;;;;15.87;14.47;;;;;;;;;;5117553;28;24527;-59
2021/10/03 08:08:33;;;;;;;15.30;13.70;;;;;;;;;;5120827;28;24509;-59
2021/10/03 08:10:59;;;;;;;16.00;14.70;;;;;;;;;;5123629;28;24401;-59
2021/10/03 08:13:24;;;;;;;15.50;14.10;;;;;;;;;;5123529;28;24401;-59
2021/10/03 08:15:49;;;;;;;15.05;13.65;;;;;;;;;;5121402;28;24879;-59
2021/10/03 08:18:14;;;;;;;16.45;14.75;;;;;;;;;;5118983;28;25114;-60
2021/10/03 08:20:41;;;;;;;15.20;13.90;;;;;;;;;;5122680;27;24385;-59
2021/10/03 08:23:06;;;;;;;14.80;13.38;;;;;;;;;;5124132;27;24404;-60
2021/10/03 08:25:31;;;;;;;15.30;14.00;;;;;;;;;;5127405;27;24480;-59
2021/10/03 08:27:57;;;;;;;15.57;14.27;;;;;;;;;;5125256;27;25049;-59
2021/10/03 08:30:22;;;;;;;15.77;14.32;;;;;;;;;;5127188;27;24458;-59
2021/10/03 08:32:47;;;;;;;13.90;12.70;;;;;;;;;;5121528;27;24420;-60
2021/10/03 08:35:12;;;;;;;15.57;14.07;;;;;;;;;;5121129;27;25276;-60
2021/10/03 08:37:38;;;;;;;15.20;13.90;;;;;;;;;;5123463;27;24463;-60
2021/10/03 08:40:04;;;;;;;15.18;13.77;;;;;;;;;;5126855;27;24397;-61
2021/10/03 08:42:29;;;;;;;14.13;13.00;;;;;;;;;;5126827;27;24404;-61
2021/10/03 08:44:54;;;;;;;15.15;13.85;;;;;;;;;;5125158;27;24389;-61
2021/10/03 08:47:22;;;;;;;14.10;12.90;;;;;;;;;;5123519;27;24834;-60
2021/10/03 08:49:47;;;;;;;15.13;13.77;;;;;;;;;;5121228;27;24388;-60
2021/10/03 08:52:12;;;;;;;16.07;14.47;;;;;;;;;;5123961;27;24769;-60
2021/10/03 08:54:38;;;;;;;14.30;13.13;;;;;;;;;;5122832;27;24435;-62
2021/10/03 08:57:04;;;;;;;15.27;13.80;;;;;;;;;;5126666;27;24504;-59
2021/10/03 08:59:29;;;;;;;14.63;13.43;;;;;;;;;;5126714;27;24492;-60
2021/10/03 09:01:55;;;;;;;14.63;13.20;;;;;;;;;;5124986;27;25334;-60
2021/10/03 09:04:24;;;;;;;15.27;13.98;;;;;;;;;;5120785;27;25029;-60
2021/10/03 09:07:05;;;;;;;14.85;13.65;;;;;;;;;;5120911;27;24444;-60
2021/10/03 09:09:48;;;;;;;13.93;12.65;;;;;;;;;;5124489;27;24404;-59
2021/10/03 09:12:31;;;;;;;14.63;13.32;;;;;;;;;;5126580;27;24407;-61
2021/10/03 09:14:56;;;;;;;14.45;13.25;;;;;;;;;;5123998;27;24405;-60
2021/10/03 09:17:22;;;;;;;14.63;13.43;;;;;;;;;;5124986;27;24473;-60
2021/10/03 09:20:06;;;;;;;15.65;14.35;;;;;;;;;;5120698;27;24808;-60
2021/10/03 09:22:31;;;;;;;15.00;13.70;;;;;;;;;;5122653;27;24426;-60
2021/10/03 09:24:59;;;;;;;15.40;14.00;;;;;;;;;;5125804;27;24820;-60
2021/10/03 09:27:44;;;;;;;15.27;13.95;;;;;;;;;;5126612;27;25220;-60
2021/10/03 09:30:09;;;;;;;14.95;13.68;;;;;;;;;;5125876;27;24756;-60
2021/10/03 09:32:34;;;;;;;14.43;13.17;;;;;;;;;;5121347;27;24982;-59
2021/10/03 09:34:59;;;;;;;14.68;13.48;;;;;;;;;;5119783;27;25148;-59
2021/10/03 09:37:25;;;;;;;14.07;12.87;;;;;;;;;;5122403;27;25015;-59
2021/10/03 09:40:00;;;;;;;14.53;13.33;;;;;;;;;;5125313;27;24449;-59
2021/10/03 09:42:25;;;;;;;14.77;13.57;;;;;;;;;;5126035;27;24438;-60
2021/10/03 09:45:07;;;;;;;14.47;13.17;;;;;;;;;;5123652;27;24806;-60
2021/10/03 09:47:32;;;;;;;14.70;13.40;;;;;;;;;;5122406;27;24551;-61
2021/10/03 09:49:57;;;;;;;14.43;13.20;;;;;;;;;;5119442;27;25010;-61
2021/10/03 09:52:23;;;;;;;14.40;13.20;;;;;;;;;;5122181;27;24404;-61
2021/10/03 09:54:48;;;;;;;14.93;13.70;;;;;;;;;;5123799;27;24462;-61
2021/10/03 09:57:19;;;;;;;15.77;14.30;;;;;;;;;;5125642;27;24972;-61
2021/10/03 09:59:45;;;;;;;15.32;14.02;;;;;;;;;;5123301;27;24413;-61
2021/10/03 10:02:13;;;;;;;14.77;13.37;;;;;;;;;;5123880;27;24398;-60
2021/10/03 10:04:39;;;;;;;15.02;13.52;;;;;;;;;;5122111;27;24466;-61
2021/10/03 10:07:04;;;;;;;14.40;13.20;;;;;;;;;;5119788;27;24401;-61
2021/10/03 10:09:30;;;;;;;13.60;12.40;;;;;;;;;;5121376;27;24406;-62
2021/10/03 10:12:06;;;;;;;14.68;13.27;;;;;;;;;;5124895;27;24436;-61
2021/10/03 10:14:33;;;;;;;14.00;12.80;;;;;;;;;;5125184;27;24980;-61
2021/10/03 10:17:01;;;;;;;15.20;13.80;;;;;;;;;;5122883;27;24979;-61
2021/10/03 10:19:55;;;;;;;14.65;13.35;;;;;;;;;;5122247;27;24492;-59
2021/10/03 10:22:24;;;;;;;13.90;12.80;;;;;;;;;;5116598;27;24424;-61
2021/10/03 10:24:51;;;;;;;13.80;12.60;;;;;;;;;;5121364;27;24408;-60
2021/10/03 10:27:19;;;;;;;13.55;12.35;;;;;;;;;;5123164;27;24753;-60
2021/10/03 10:29:51;;;;;;;14.47;13.20;;;;;;;;;;5122627;27;24445;-60
2021/10/03 10:32:16;;;;;;;14.70;13.40;;;;;;;;;;5124791;27;24446;-60
2021/10/03 10:35:00;;;;;;;14.47;13.17;;;;;;;;;;5119501;27;24823;-60
2021/10/03 10:37:44;;;;;;;14.07;12.85;;;;;;;;;;5119629;27;25180;-60
2021/10/03 10:40:21;;;;;;;13.90;12.80;;;;;;;;;;5124394;27;24832;-60
2021/10/03 10:42:47;;;;;;;13.70;12.50;;;;;;;;;;5124148;27;24409;-60
2021/10/03 10:45:27;;;;;;;13.80;12.40;;;;;;;;;;5124565;27;24397;-60
2021/10/03 10:48:08;;;;;;;13.10;12.00;;;;;;;;;;5120405;27;24979;-60
2021/10/03 10:50:34;;;;;;;13.57;12.37;;;;;;;;;;5120672;27;24427;-60
2021/10/03 10:53:17;;;;;;;14.15;12.85;;;;;;;;;;5118347;27;24535;-59
2021/10/03 10:55:58;;;;;;;13.40;12.20;;;;;;;;;;5122593;27;24400;-59
2021/10/03 10:58:24;;;;;;;13.30;12.10;;;;;;;;;;5124190;27;24468;-59
2021/10/03 11:00:54;;;;;;;14.00;12.70;;;;;;;;;;5122302;27;24912;-59
2021/10/03 11:03:20;;;;;;;12.43;11.30;;;;;;;;;;5120163;27;24983;-59
2021/10/03 11:05:47;;;;;;;13.40;12.20;;;;;;;;;;5118552;27;24492;-59
2021/10/03 11:08:17;;;;;;;12.82;11.82;;;;;;;;;;5120605;27;24408;-60
2021/10/03 11:11:00;;;;;;;13.23;12.02;;;;;;;;;;5122506;27;24394;-59
2021/10/03 11:13:37;;;;;;;14.10;12.80;;;;;;;;;;5124023;27;24421;-58
2021/10/03 11:16:21;;;;;;;13.90;12.55;;;;;;;;;;5123817;27;24401;-58
2021/10/03 11:18:50;;;;;;;13.13;11.93;;;;;;;;;;5117887;27;24466;-62
2021/10/03 11:21:19;;;;;;;14.27;13.07;;;;;;;;;;5120371;27;24836;-61
2021/10/03 11:23:45;;;;;;;13.00;11.80;;;;;;;;;;5121283;27;24493;-61
2021/10/03 11:26:10;;;;;;;12.80;11.83;;;;;;;;;;5123746;27;25020;-60
2021/10/03 11:28:48;;;;;;;13.60;12.40;;;;;;;;;;5122218;27;24465;-59
2021/10/03 11:31:14;;;;;;;13.48;12.30;;;;;;;;;;5120198;27;24400;-59
2021/10/03 11:33:46;;;;;;;13.53;12.23;;;;;;;;;;5120042;27;24417;-61
2021/10/03 11:36:11;;;;;;;14.10;12.90;;;;;;;;;;5123523;27;24489;-61
2021/10/03 11:38:46;;;;;;;13.00;11.60;;;;;;;;;;5121165;27;24850;-61
2021/10/03 11:41:11;;;;;;;13.43;12.13;;;;;;;;;;5118212;27;24486;-61
2021/10/03 11:43:36;;;;;;;13.50;12.10;;;;;;;;;;5117765;27;24492;-61
2021/10/03 11:46:05;;;;;;;12.82;11.82;;;;;;;;;;5123171;27;24874;-61
2021/10/03 11:48:30;;;;;;;12.30;11.30;;;;;;;;;;5123461;27;24822;-61
2021/10/03 11:50:55;;;;;;;12.90;11.77;;;;;;;;;;5121722;28;25392;-61
2021/10/03 11:53:20;;;;;;;13.30;12.10;;;;;;;;;;5116921;27;24410;-61
2021/10/03 11:55:47;;;;;;;14.17;12.80;;;;;;;;;;5119344;28;24397;-61
2021/10/03 11:58:13;;;;;;;12.97;11.90;;;;;;;;;;5120220;28;24440;-60
2021/10/03 12:00:49;;;;;;;14.13;12.82;;;;;;;;;;5120840;27;25047;-61
2021/10/03 12:03:16;;;;;;;14.10;12.80;;;;;;;;;;5119051;27;24428;-61
2021/10/03 12:05:41;;;;;;;12.98;11.77;;;;;;;;;;5118011;28;24385;-61
2021/10/03 12:08:14;;;;;;;13.40;12.30;;;;;;;;;;5121235;28;25101;-61
2021/10/03 12:10:39;;;;;;;13.70;12.50;;;;;;;;;;5121799;28;24437;-61
2021/10/03 12:13:11;;;;;;;13.52;12.32;;;;;;;;;;5123183;28;24469;-61
2021/10/03 12:15:38;;;;;;;12.93;11.82;;;;;;;;;;5121589;28;24447;-60
2021/10/03 12:18:04;;;;;;;13.82;12.63;;;;;;;;;;5117762;28;24417;-61
2021/10/03 12:20:46;;;;;;;13.30;12.10;;;;;;;;;;5119520;28;24802;-60
2021/10/03 12:23:11;;;;;;;13.05;11.95;;;;;;;;;;5120530;28;24405;-60
2021/10/03 12:25:39;;;;;;;13.07;11.98;;;;;;;;;;5121436;28;24465;-61
2021/10/03 12:28:05;;;;;;;12.77;11.77;;;;;;;;;;5123225;28;24940;-61
2021/10/03 12:30:43;;;;;;;13.20;12.10;;;;;;;;;;5123381;28;24417;-60
2021/10/03 12:33:08;;;;;;;13.60;12.30;;;;;;;;;;5118702;28;24979;-59
2021/10/03 12:35:37;;;;;;;12.73;11.63;;;;;;;;;;5120783;28;24432;-59
2021/10/03 12:38:02;;;;;;;12.10;10.90;;;;;;;;;;5122763;28;24417;-61
2021/10/03 12:40:27;;;;;;;12.07;10.98;;;;;;;;;;5123425;28;24570;-59
2021/10/03 12:42:52;;;;;;;13.00;11.90;;;;;;;;;;5120326;28;24720;-60
2021/10/03 12:45:17;;;;;;;13.18;11.98;;;;;;;;;;5123223;28;24781;-59
2021/10/03 12:47:43;;;;;;;12.10;11.10;;;;;;;;;;5117555;28;25036;-60
2021/10/03 12:50:09;;;;;;;12.23;11.13;;;;;;;;;;5117483;28;24467;-60
2021/10/03 12:52:34;;;;;;;12.00;11.00;;;;;;;;;;5120267;28;25024;-59
2021/10/03 12:54:59;;;;;;;12.45;11.35;;;;;;;;;;5119965;28;25239;-59
2021/10/03 12:57:25;;;;;;;11.48;10.55;;;;;;;;;;5120395;28;25040;-60
2021/10/03 12:59:51;;;;;;;11.57;10.57;;;;;;;;;;5117537;28;24516;-60
2021/10/03 13:02:16;;;;;;;11.55;10.65;;;;;;;;;;5117372;28;24513;-59
2021/10/03 13:04:41;;;;;;;12.18;10.98;;;;;;;;;;5112926;28;24409;-60
2021/10/03 13:07:06;;;;;;;11.48;10.30;;;;;;;;;;5118306;27;24417;-59
2021/10/03 13:09:31;;;;;;;11.30;10.05;;;;;;;;;;5120370;27;24413;-60
2021/10/03 13:11:56;;;;;;;11.90;10.90;;;;;;;;;;5123789;27;24543;-59
2021/10/03 13:14:22;;;;;;;12.30;11.10;;;;;;;;;;5123806;27;24511;-60
2021/10/03 13:16:47;;;;;;;11.05;10.05;;;;;;;;;;5116069;27;25062;-60
2021/10/03 13:19:12;;;;;;;11.40;10.40;;;;;;;;;;5116219;27;24956;-61
2021/10/03 13:21:38;;;;;;;12.40;11.20;;;;;;;;;;5126525;27;25059;-61
2021/10/03 13:24:03;;;;;;;12.67;11.47;;;;;;;;;;5126533;27;24818;-61
2021/10/03 13:26:28;;;;;;;13.20;11.95;;;;;;;;;;5127065;27;24428;-61
2021/10/03 13:28:54;;;;;;;11.60;10.60;;;;;;;;;;5107869;27;24563;-61
2021/10/03 13:31:19;;;;;;;11.88;10.88;;;;;;;;;;5127070;27;24417;-62
2021/10/03 13:33:44;;;;;;;11.77;10.77;;;;;;;;;;5125572;27;25021;-61
2021/10/03 13:36:09;;;;;;;13.33;12.07;;;;;;;;;;5099115;27;24460;-60
2021/10/03 13:38:35;;;;;;;12.85;11.75;;;;;;;;;;5113642;27;24865;-62
2021/10/03 13:41:02;;;;;;;11.90;10.70;;;;;;;;;;5124870;27;24420;-61
2021/10/03 13:43:31;;;;;;;11.73;10.63;;;;;;;;;;5123121;27;24461;-60
2021/10/03 13:45:56;;;;;;;13.02;11.93;;;;;;;;;;5124722;27;24477;-59
2021/10/03 13:48:21;;;;;;;12.83;11.73;;;;;;;;;;5121984;27;24413;-59
2021/10/03 13:50:46;;;;;;;11.07;10.18;;;;;;;;;;5122650;27;24432;-60
2021/10/03 13:53:11;;;;;;;12.27;11.17;;;;;;;;;;5123452;27;24739;-60
2021/10/03 13:55:38;;;;;;;12.02;10.90;;;;;;;;;;5125859;27;24413;-61
2021/10/03 13:58:03;;;;;;;12.60;11.50;;;;;;;;;;5125096;27;24425;-60
2021/10/03 14:00:28;;;;;;;12.20;11.20;;;;;;;;;;5125679;27;25029;-60
2021/10/03 14:02:53;;;;;;;11.60;10.60;;;;;;;;;;5122124;27;24784;-60
2021/10/03 14:05:18;;;;;;;13.00;11.80;;;;;;;;;;5125079;27;25076;-60
2021/10/03 14:07:43;;;;;;;12.70;11.60;;;;;;;;;;5126059;27;24669;-60
2021/10/03 14:10:12;;;;;;;12.50;11.40;;;;;;;;;;5125535;27;24427;-60
2021/10/03 14:12:38;;;;;;;13.35;12.05;;;;;;;;;;5112169;27;24972;-60